Larimore, North Dakota
Current Conditions -  °F | °C
As of 5:58 AM on Monday 20 Oct 2014 (Local Time) from KRDR Reporting Station
Clear Clear  
Wind Chill: 32°   Ceiling: Unl
Heat Index: 36°   Visibility: 10mi
Dew Point: 36°   Wind: 5mph
Humidity: 99%   Direction: 330°NNW
Pressure: 30.03"   Gusts: NA
Location:  47.91°N, 97.63°W
Report Text: KRDR 201058Z AUTO 33004KT 10SM CLR 02/02 A3003 RMK AO2 SLP179 T00230022
Loading
Personal Weather Stations






























Interactive Weather Map
Tropical Storm Tracking
New forecast layout! Learn more

10-Day Weather Forecast

Advertisements
Track Severe Weather on mobile